Time;durP1;ratioP1;P1;durP2;ratioP2;P2;SDS_P1;SDS_P2;PMS_P1;PMS_P2;Temp;Humidity;BMP_temperature;BMP_pressure;BME280_temperature;BME280_humidity;BME280_pressure;Samples;Min_cycle;Max_cycle;Signal;HPM_P1;HPM_P2
2022/02/22 00:00:11;;;;;;;1.10;0.57;;;7.00;99.90;;;;;;5095930;28;20518;-68
2022/02/22 00:02:37;;;;;;;1.10;0.63;;;7.00;99.90;;;;;;5095438;28;20163;-67
2022/02/22 00:05:03;;;;;;;6.37;2.10;;;7.10;99.90;;;;;;5094742;28;20255;-69
2022/02/22 00:07:29;;;;;;;1.50;0.75;;;7.10;99.90;;;;;;5093948;28;20553;-68
2022/02/22 00:09:56;;;;;;;1.87;1.07;;;7.00;99.90;;;;;;5095233;28;20222;-68
2022/02/22 00:12:23;;;;;;;1.98;1.10;;;7.10;99.90;;;;;;5095227;28;20958;-68
2022/02/22 00:14:49;;;;;;;1.13;1.02;;;7.10;99.90;;;;;;5094768;28;20235;-68
2022/02/22 00:17:15;;;;;;;0.53;0.53;;;7.10;99.90;;;;;;5095082;28;20167;-69
2022/02/22 00:19:41;;;;;;;0.60;0.60;;;7.10;99.90;;;;;;5094766;28;20400;-69
2022/02/22 00:22:07;;;;;;;2.07;0.93;;;7.10;99.90;;;;;;5095168;28;20614;-67
2022/02/22 00:24:32;;;;;;;2.37;0.70;;;7.10;99.90;;;;;;5094705;28;20193;-71
2022/02/22 00:26:58;;;;;;;2.43;1.13;;;7.10;99.90;;;;;;5095003;28;20405;-67
2022/02/22 00:29:24;;;;;;;1.13;1.13;;;7.10;99.90;;;;;;5094935;28;20197;-69
2022/02/22 00:31:50;;;;;;;6.40;1.20;;;7.10;99.90;;;;;;5094814;28;20409;-68
2022/02/22 00:34:16;;;;;;;1.50;0.50;;;7.00;99.90;;;;;;5094347;28;20936;-68
2022/02/22 00:36:44;;;;;;;1.33;1.07;;;7.10;99.90;;;;;;5094671;28;20173;-68
2022/02/22 00:39:13;;;;;;;0.73;0.70;;;7.10;99.90;;;;;;5094678;28;20172;-69
2022/02/22 00:41:39;;;;;;;0.60;0.60;;;7.10;99.90;;;;;;5093251;28;20179;-66
2022/02/22 00:44:06;;;;;;;1.53;1.53;;;7.10;99.90;;;;;;5094523;28;20656;-68
2022/02/22 00:46:33;;;;;;;1.20;0.65;;;7.10;99.90;;;;;;5094535;28;20162;-69
2022/02/22 00:48:58;;;;;;;0.63;0.63;;;7.00;99.90;;;;;;5094641;28;20172;-71
2022/02/22 00:51:24;;;;;;;1.00;0.73;;;7.00;99.90;;;;;;5094426;28;20254;-69
2022/02/22 00:53:50;;;;;;;2.10;0.83;;;7.00;99.90;;;;;;5093880;28;20204;-67
2022/02/22 00:56:15;;;;;;;10.87;1.07;;;7.00;99.90;;;;;;5094460;28;20224;-68
2022/02/22 00:58:41;;;;;;;0.80;0.80;;;6.90;99.90;;;;;;5093773;28;20221;-68
2022/02/22 01:01:07;;;;;;;0.97;0.70;;;6.90;99.90;;;;;;5094404;28;20422;-69
2022/02/22 01:03:33;;;;;;;1.23;1.07;;;6.90;99.90;;;;;;5092689;28;20553;-68
2022/02/22 01:05:59;;;;;;;1.07;0.70;;;6.90;99.90;;;;;;5094077;28;20198;-69
2022/02/22 01:08:24;;;;;;;0.40;0.40;;;6.90;99.90;;;;;;5094596;28;20651;-68
2022/02/22 01:10:50;;;;;;;0.90;0.80;;;6.90;99.90;;;;;;5094059;28;20203;-69
2022/02/22 01:13:16;;;;;;;1.53;0.60;;;6.90;99.90;;;;;;5093667;28;20195;-68
2022/02/22 01:15:43;;;;;;;0.80;0.80;;;6.90;99.90;;;;;;5094028;28;20195;-69
2022/02/22 01:18:08;;;;;;;1.95;1.83;;;6.90;99.90;;;;;;5094176;28;20177;-69
2022/02/22 01:20:34;;;;;;;2.20;1.30;;;6.90;99.90;;;;;;5094049;28;20170;-67
2022/02/22 01:23:00;;;;;;;2.63;0.73;;;6.80;99.90;;;;;;5093549;28;20178;-71
2022/02/22 01:25:29;;;;;;;3.40;1.07;;;6.80;99.90;;;;;;5093581;28;20197;-69
2022/02/22 01:27:55;;;;;;;1.95;0.85;;;6.70;99.90;;;;;;5093471;28;20178;-70
2022/02/22 01:30:23;;;;;;;0.87;0.87;;;6.70;99.90;;;;;;5093268;28;20524;-70
2022/02/22 01:32:49;;;;;;;0.63;0.63;;;6.60;99.90;;;;;;5093185;28;20447;-69
2022/02/22 01:35:14;;;;;;;3.53;0.63;;;6.60;99.90;;;;;;5093139;28;20182;-69
2022/02/22 01:37:40;;;;;;;0.80;0.80;;;6.60;99.90;;;;;;5091209;28;20166;-67
2022/02/22 01:40:08;;;;;;;2.67;1.10;;;6.60;99.90;;;;;;5093196;28;20170;-70
2022/02/22 01:42:36;;;;;;;1.70;0.73;;;6.60;99.90;;;;;;5093724;28;20239;-68
2022/02/22 01:45:03;;;;;;;7.65;0.90;;;6.60;99.90;;;;;;5093283;28;20186;-70
2022/02/22 01:47:29;;;;;;;1.00;1.00;;;6.50;99.90;;;;;;5092990;28;20178;-70
2022/02/22 01:49:55;;;;;;;1.53;0.93;;;6.40;99.90;;;;;;5090385;28;20190;-68
2022/02/22 01:52:20;;;;;;;1.53;1.53;;;6.40;99.90;;;;;;5091481;28;20625;-68
2022/02/22 01:54:47;;;;;;;1.93;1.17;;;6.30;99.90;;;;;;5091206;28;20211;-72
2022/02/22 01:57:13;;;;;;;1.98;0.90;;;6.20;99.90;;;;;;5091656;28;20175;-71
2022/02/22 01:59:40;;;;;;;0.47;0.47;;;6.20;99.90;;;;;;5090170;28;20172;-69
2022/02/22 02:02:06;;;;;;;1.95;0.63;;;6.20;99.90;;;;;;5091465;28;20419;-71
2022/02/22 02:04:31;;;;;;;1.37;1.20;;;6.20;99.90;;;;;;5091458;28;20710;-69
2022/02/22 02:06:58;;;;;;;2.97;1.00;;;6.10;99.90;;;;;;5093599;28;20686;-67
2022/02/22 02:09:25;;;;;;;1.60;0.93;;;6.10;99.90;;;;;;5093285;28;20168;-70
2022/02/22 02:11:59;;;;;;;0.60;0.60;;;6.10;99.90;;;;;;5097146;28;20174;-67
2022/02/22 02:14:26;;;;;;;0.50;0.50;;;6.10;99.90;;;;;;5095808;28;20808;-70
2022/02/22 02:16:53;;;;;;;0.80;0.80;;;5.90;99.90;;;;;;5097533;28;20179;-70
2022/02/22 02:19:19;;;;;;;1.17;0.90;;;5.90;99.90;;;;;;5097621;28;20168;-68
2022/02/22 02:21:47;;;;;;;0.60;0.60;;;5.80;99.90;;;;;;5097326;28;20168;-68
2022/02/22 02:24:15;;;;;;;1.25;1.15;;;5.70;99.90;;;;;;5096840;28;20646;-69
2022/02/22 02:26:42;;;;;;;3.65;0.75;;;5.60;99.90;;;;;;5097401;28;20168;-68
2022/02/22 02:29:10;;;;;;;1.83;1.45;;;5.60;99.90;;;;;;5097062;28;20229;-68
2022/02/22 02:31:40;;;;;;;2.05;1.13;;;5.50;99.90;;;;;;5097131;28;20160;-67
2022/02/22 02:34:08;;;;;;;0.60;0.60;;;5.50;99.90;;;;;;5095280;28;20208;-68
2022/02/22 02:36:35;;;;;;;2.00;0.57;;;5.50;99.90;;;;;;5097057;28;20631;-68
2022/02/22 02:39:02;;;;;;;1.52;1.42;;;5.60;99.90;;;;;;5097152;28;20627;-69
2022/02/22 02:41:28;;;;;;;2.83;1.58;;;5.60;99.90;;;;;;5095578;28;20179;-69
2022/02/22 02:44:00;;;;;;;1.05;0.95;;;5.60;99.90;;;;;;5096476;28;20289;-68
2022/02/22 02:46:26;;;;;;;1.95;0.57;;;5.60;99.90;;;;;;5096939;28;20341;-70
2022/02/22 02:48:53;;;;;;;2.60;1.37;;;5.70;99.90;;;;;;5096879;28;20245;-68
2022/02/22 02:51:18;;;;;;;2.70;0.90;;;5.70;99.90;;;;;;5096813;28;20270;-68
2022/02/22 02:53:44;;;;;;;1.07;1.00;;;5.60;99.90;;;;;;5096278;28;20219;-70
2022/02/22 02:56:10;;;;;;;0.50;0.50;;;5.60;99.90;;;;;;5096723;28;20192;-69
2022/02/22 02:58:35;;;;;;;0.87;0.87;;;5.60;99.90;;;;;;5096652;28;20217;-67
2022/02/22 03:01:01;;;;;;;0.53;0.50;;;5.60;99.90;;;;;;5096645;28;20164;-69
2022/02/22 03:03:27;;;;;;;1.07;1.07;;;5.70;99.90;;;;;;5095877;28;20187;-68
2022/02/22 03:05:52;;;;;;;0.97;0.97;;;5.70;99.90;;;;;;5095183;28;20190;-69
2022/02/22 03:08:18;;;;;;;5.80;1.50;;;5.70;99.90;;;;;;5095369;28;20681;-68
2022/02/22 03:10:43;;;;;;;2.40;0.63;;;5.70;99.90;;;;;;5095127;28;20176;-69
2022/02/22 03:13:09;;;;;;;1.10;0.83;;;5.70;99.90;;;;;;5094569;28;20565;-69
2022/02/22 03:15:35;;;;;;;2.00;1.43;;;5.70;99.90;;;;;;5094962;28;20707;-67
2022/02/22 03:18:00;;;;;;;2.33;0.90;;;5.80;99.90;;;;;;5095289;28;20166;-68
2022/02/22 03:20:26;;;;;;;1.30;0.80;;;5.80;99.90;;;;;;5095049;28;20191;-68
2022/02/22 03:22:53;;;;;;;1.27;0.60;;;5.80;99.90;;;;;;5094331;28;20248;-67
2022/02/22 03:25:19;;;;;;;2.92;1.15;;;5.80;99.90;;;;;;5094925;28;20199;-69
2022/02/22 03:27:45;;;;;;;1.15;0.80;;;5.80;99.90;;;;;;5094821;28;20194;-70
2022/02/22 03:30:12;;;;;;;1.30;1.30;;;5.80;99.90;;;;;;5094867;28;20207;-67
2022/02/22 03:32:37;;;;;;;0.60;0.60;;;5.80;99.90;;;;;;5094908;28;20200;-69
2022/02/22 03:35:03;;;;;;;0.60;0.60;;;5.80;99.90;;;;;;5094318;28;20543;-68
2022/02/22 03:37:29;;;;;;;1.20;1.10;;;5.80;99.90;;;;;;5094495;28;20175;-68
2022/02/22 03:39:55;;;;;;;15.57;0.90;;;5.80;99.90;;;;;;5093389;28;20176;-67
2022/02/22 03:42:20;;;;;;;0.93;0.93;;;5.80;99.90;;;;;;5094634;28;20530;-67
2022/02/22 03:44:46;;;;;;;4.13;2.13;;;5.90;99.90;;;;;;5094102;28;20184;-66
2022/02/22 03:47:11;;;;;;;1.17;0.80;;;5.90;99.90;;;;;;5094481;28;20199;-68
2022/02/22 03:49:37;;;;;;;0.87;0.70;;;5.90;99.90;;;;;;5094488;28;20253;-67
2022/02/22 03:52:03;;;;;;;1.23;1.13;;;5.90;99.90;;;;;;5094521;28;20687;-67
2022/02/22 03:54:29;;;;;;;0.90;0.80;;;5.90;99.90;;;;;;5094069;28;20191;-68
2022/02/22 03:56:54;;;;;;;1.37;0.77;;;5.80;99.90;;;;;;5093139;28;20398;-67
2022/02/22 03:59:20;;;;;;;1.07;1.00;;;5.70;99.90;;;;;;5094394;28;20215;-68
2022/02/22 04:01:46;;;;;;;1.57;1.27;;;5.60;99.90;;;;;;5094344;28;20430;-69
2022/02/22 04:04:11;;;;;;;21.87;1.77;;;5.60;99.90;;;;;;5039997;28;1547623;-69
2022/02/22 04:06:37;;;;;;;1.53;1.30;;;5.50;99.90;;;;;;5095554;28;20961;-66
2022/02/22 04:09:03;;;;;;;0.80;0.80;;;5.50;99.90;;;;;;5095446;28;20180;-67
2022/02/22 04:11:29;;;;;;;8.10;0.93;;;5.50;99.90;;;;;;5095234;28;20310;-67
2022/02/22 04:13:54;;;;;;;0.60;0.60;;;5.50;99.90;;;;;;5093404;28;20731;-68
2022/02/22 04:16:20;;;;;;;1.23;1.13;;;5.40;99.90;;;;;;5094922;28;20175;-67
2022/02/22 04:18:45;;;;;;;6.23;2.17;;;5.40;99.90;;;;;;5095237;28;20168;-67
2022/02/22 04:21:11;;;;;;;5.60;0.90;;;5.40;99.90;;;;;;5094963;28;20164;-68
2022/02/22 04:23:37;;;;;;;4.00;1.07;;;5.30;99.90;;;;;;5094658;28;20184;-69
2022/02/22 04:26:02;;;;;;;8.53;1.67;;;5.30;99.90;;;;;;5094838;28;20192;-69
2022/02/22 04:28:28;;;;;;;6.83;2.13;;;5.20;99.90;;;;;;5094887;28;20168;-68
2022/02/22 04:30:54;;;;;;;5.40;1.20;;;5.20;99.90;;;;;;5095014;28;20180;-68
2022/02/22 04:33:19;;;;;;;1.77;0.90;;;5.20;99.90;;;;;;5093681;28;20196;-65
2022/02/22 04:35:45;;;;;;;1.60;1.50;;;5.20;99.90;;;;;;5094912;28;20224;-66
2022/02/22 04:38:10;;;;;;;0.83;0.83;;;5.20;99.90;;;;;;5094610;28;20243;-67
2022/02/22 04:40:36;;;;;;;1.70;1.40;;;5.20;99.90;;;;;;5094561;28;20652;-67
2022/02/22 04:43:02;;;;;;;1.80;1.13;;;5.20;99.90;;;;;;5094231;28;20251;-67
2022/02/22 04:45:27;;;;;;;1.03;0.90;;;5.20;99.90;;;;;;5094533;28;20674;-67
2022/02/22 04:47:55;;;;;;;3.73;2.00;;;5.20;99.90;;;;;;5094683;28;20172;-68
2022/02/22 04:50:22;;;;;;;1.63;1.20;;;5.20;99.90;;;;;;5094408;28;20221;-69
2022/02/22 04:52:48;;;;;;;1.27;1.17;;;5.20;99.90;;;;;;5093925;28;20234;-69
2022/02/22 04:55:14;;;;;;;1.35;1.33;;;5.20;99.90;;;;;;5093009;28;20196;-68
2022/02/22 04:57:40;;;;;;;1.83;1.40;;;5.20;99.90;;;;;;5094720;28;20650;-69
2022/02/22 05:00:09;;;;;;;1.80;1.10;;;5.20;99.90;;;;;;5094395;28;20559;-69
2022/02/22 05:02:35;;;;;;;4.50;1.30;;;5.10;99.90;;;;;;5094234;28;20172;-70
2022/02/22 05:05:01;;;;;;;1.40;1.30;;;5.10;99.90;;;;;;5093795;28;20682;-66
2022/02/22 05:07:26;;;;;;;1.30;1.20;;;5.00;99.90;;;;;;5092656;28;20175;-68
2022/02/22 05:09:52;;;;;;;1.20;1.10;;;4.90;99.90;;;;;;5094053;28;20721;-68
2022/02/22 05:12:18;;;;;;;3.87;1.73;;;4.80;99.90;;;;;;5093884;28;20207;-68
2022/02/22 05:14:43;;;;;;;4.90;1.10;;;4.80;99.90;;;;;;5093668;28;20209;-69
2022/02/22 05:17:09;;;;;;;2.67;0.90;;;4.70;99.90;;;;;;5093889;28;20172;-68
2022/02/22 05:19:34;;;;;;;3.10;1.60;;;4.60;99.90;;;;;;5093957;28;20173;-68
2022/02/22 05:22:00;;;;;;;0.90;0.90;;;4.60;99.90;;;;;;5094323;28;20235;-68
2022/02/22 05:24:26;;;;;;;4.23;0.90;;;4.50;99.90;;;;;;5093451;28;20249;-68
2022/02/22 05:26:51;;;;;;;3.13;1.17;;;4.50;99.90;;;;;;5093718;28;20168;-69
2022/02/22 05:29:17;;;;;;;1.70;1.60;;;4.40;99.90;;;;;;5092544;28;20168;-68
2022/02/22 05:31:43;;;;;;;1.57;1.43;;;4.40;99.90;;;;;;5093793;28;20171;-67
2022/02/22 05:34:09;;;;;;;1.20;1.20;;;4.30;99.90;;;;;;5093204;28;20195;-66
2022/02/22 05:36:34;;;;;;;2.10;1.50;;;4.30;99.90;;;;;;5093547;28;20872;-69
2022/02/22 05:39:00;;;;;;;3.33;1.33;;;4.30;99.90;;;;;;5093573;28;20656;-66
2022/02/22 05:41:26;;;;;;;1.57;1.47;;;4.20;99.90;;;;;;5093693;28;20168;-68
2022/02/22 05:43:52;;;;;;;4.20;1.40;;;4.30;99.90;;;;;;5092958;28;20163;-67
2022/02/22 05:46:18;;;;;;;3.90;1.03;;;4.30;99.90;;;;;;5093482;28;20200;-65
2022/02/22 05:48:44;;;;;;;1.30;1.20;;;4.30;99.90;;;;;;5092164;28;20406;-68
2022/02/22 05:51:10;;;;;;;1.40;1.30;;;4.30;99.90;;;;;;5093547;28;20188;-68
2022/02/22 05:53:37;;;;;;;0.90;0.90;;;4.20;99.90;;;;;;5092956;28;20658;-69
2022/02/22 05:56:03;;;;;;;1.20;1.13;;;4.20;99.90;;;;;;5093317;28;20215;-68
2022/02/22 05:58:28;;;;;;;1.77;1.65;;;4.20;99.90;;;;;;5093309;28;20165;-67
2022/02/22 06:00:54;;;;;;;1.47;1.00;;;4.20;99.90;;;;;;5093246;28;20564;-68
2022/02/22 06:03:19;;;;;;;1.13;1.03;;;4.20;99.90;;;;;;5092847;28;20215;-68
2022/02/22 06:05:45;;;;;;;5.27;1.70;;;4.20;99.90;;;;;;5093678;28;20614;-67
2022/02/22 06:08:11;;;;;;;1.90;1.20;;;4.20;99.90;;;;;;5091992;28;20191;-69
2022/02/22 06:10:37;;;;;;;3.03;0.87;;;4.20;99.90;;;;;;5093127;28;20171;-69
2022/02/22 06:13:02;;;;;;;1.80;1.80;;;4.20;99.90;;;;;;5092990;28;20202;-67
2022/02/22 06:15:28;;;;;;;1.53;1.23;;;4.20;99.90;;;;;;5093169;28;20183;-69
2022/02/22 06:17:54;;;;;;;0.70;0.70;;;4.10;99.90;;;;;;5093394;28;20165;-70
2022/02/22 06:20:19;;;;;;;5.60;2.13;;;4.20;99.90;;;;;;5093068;28;20160;-68
2022/02/22 06:22:47;;;;;;;1.50;1.40;;;4.10;99.90;;;;;;5093110;28;20301;-69
2022/02/22 06:25:13;;;;;;;1.95;1.77;;;4.10;99.90;;;;;;5092890;28;20215;-67
2022/02/22 06:27:50;;;;;;;2.45;1.00;;;4.10;99.90;;;;;;5093271;28;20572;-66
2022/02/22 06:30:18;;;;;;;0.90;0.90;;;4.00;99.90;;;;;;5093358;28;20179;-67
2022/02/22 06:32:43;;;;;;;1.45;0.90;;;4.00;99.90;;;;;;5092573;28;20328;-67
2022/02/22 06:35:10;;;;;;;0.90;0.90;;;4.00;99.90;;;;;;5093238;28;20278;-65
2022/02/22 06:37:36;;;;;;;2.85;1.10;;;4.10;99.90;;;;;;5092883;28;20177;-66
2022/02/22 06:40:05;;;;;;;1.33;1.05;;;4.10;99.90;;;;;;5092914;28;20168;-65
2022/02/22 06:42:31;;;;;;;5.70;1.50;;;4.10;99.90;;;;;;5093081;28;20221;-65
2022/02/22 06:44:57;;;;;;;1.52;1.42;;;4.20;99.90;;;;;;5091316;28;20740;-65
2022/02/22 06:47:23;;;;;;;11.80;2.40;;;4.40;99.90;;;;;;5091638;28;20263;-66
2022/02/22 06:49:48;;;;;;;2.20;1.33;;;4.50;99.90;;;;;;5092878;28;20169;-63
2022/02/22 06:52:15;;;;;;;4.57;1.63;;;4.70;99.90;;;;;;5091696;28;20211;-63
2022/02/22 06:54:40;;;;;;;4.75;1.10;;;4.90;99.90;;;;;;5092491;28;20192;-65
2022/02/22 06:57:06;;;;;;;1.73;1.23;;;5.20;99.90;;;;;;5095282;28;20248;-64
2022/02/22 06:59:32;;;;;;;4.10;1.90;;;5.40;99.90;;;;;;5095230;28;20165;-64
2022/02/22 07:01:58;;;;;;;2.58;1.58;;;5.70;99.90;;;;;;5096730;28;20255;-64
2022/02/22 07:04:24;;;;;;;1.80;1.23;;;5.90;99.90;;;;;;5094673;28;20566;-65
2022/02/22 07:06:49;;;;;;;1.90;1.70;;;6.10;99.90;;;;;;5096361;28;20165;-65
2022/02/22 07:09:15;;;;;;;2.90;1.90;;;6.40;99.90;;;;;;5096362;28;20542;-65
2022/02/22 07:11:41;;;;;;;4.00;3.03;;;6.60;99.90;;;;;;5096464;28;20205;-64
2022/02/22 07:14:06;;;;;;;1.30;1.20;;;6.80;99.90;;;;;;5095658;28;20206;-64
2022/02/22 07:16:32;;;;;;;2.93;1.77;;;6.80;99.90;;;;;;5096049;28;20171;-66
2022/02/22 07:18:57;;;;;;;1.47;1.37;;;6.60;99.90;;;;;;5096286;28;20171;-66
2022/02/22 07:21:23;;;;;;;2.53;1.80;;;6.50;99.90;;;;;;5096127;28;20631;-66
2022/02/22 07:23:49;;;;;;;2.15;1.10;;;6.30;99.90;;;;;;5095610;28;20527;-67
2022/02/22 07:26:16;;;;;;;1.77;1.70;;;6.10;99.90;;;;;;5096188;28;20172;-65
2022/02/22 07:28:42;;;;;;;3.08;1.67;;;6.00;99.90;;;;;;5096066;28;20413;-66
2022/02/22 07:31:09;;;;;;;4.85;2.00;;;6.10;99.90;;;;;;5095968;28;20606;-66
2022/02/22 07:33:35;;;;;;;1.00;1.00;;;6.20;99.90;;;;;;5095394;28;20591;-66
2022/02/22 07:36:00;;;;;;;9.23;2.23;;;6.30;99.90;;;;;;5095659;28;20231;-66
2022/02/22 07:38:26;;;;;;;1.03;0.93;;;6.30;99.90;;;;;;5095334;28;20595;-64
2022/02/22 07:40:52;;;;;;;16.23;2.13;;;6.40;99.90;;;;;;5092844;28;20221;-67
2022/02/22 07:43:17;;;;;;;5.83;2.80;;;6.40;99.90;;;;;;5094551;28;20194;-68
2022/02/22 07:45:43;;;;;;;4.73;1.40;;;6.40;99.90;;;;;;5092468;28;20556;-67
2022/02/22 07:48:09;;;;;;;2.33;2.08;;;6.40;99.90;;;;;;5084635;28;20179;-65
2022/02/22 07:50:38;;;;;;;3.13;1.70;;;6.50;99.90;;;;;;5087979;28;20253;-66
2022/02/22 07:53:04;;;;;;;3.78;1.58;;;6.50;99.90;;;;;;5095316;28;20204;-68
2022/02/22 07:55:30;;;;;;;4.90;1.27;;;6.50;99.90;;;;;;5095238;28;20665;-68
2022/02/22 07:57:55;;;;;;;1.90;1.80;;;6.60;99.90;;;;;;5095396;28;20162;-67
2022/02/22 08:00:21;;;;;;;1.80;1.13;;;6.60;99.90;;;;;;5095292;28;20175;-65
2022/02/22 08:02:47;;;;;;;3.07;1.20;;;6.70;99.90;;;;;;5094704;28;20175;-67
2022/02/22 08:05:12;;;;;;;2.15;1.95;;;6.80;99.90;;;;;;5095092;28;20620;-66
2022/02/22 08:07:38;;;;;;;1.10;1.10;;;6.90;99.90;;;;;;5094233;28;20255;-66
2022/02/22 08:10:06;;;;;;;1.57;1.07;;;6.90;99.90;;;;;;5095206;28;20546;-65
2022/02/22 08:12:31;;;;;;;1.75;1.65;;;7.10;99.90;;;;;;5094772;28;20202;-64
2022/02/22 08:14:57;;;;;;;2.50;2.30;;;7.20;99.90;;;;;;5094391;28;20728;-65
2022/02/22 08:17:23;;;;;;;2.83;1.10;;;7.50;99.90;;;;;;5094824;28;20506;-65
2022/02/22 08:19:48;;;;;;;2.40;1.50;;;7.70;99.90;;;;;;5095067;28;20178;-65
2022/02/22 08:22:14;;;;;;;2.10;1.27;;;8.00;99.90;;;;;;5094674;28;20168;-67
2022/02/22 08:24:40;;;;;;;2.23;2.03;;;8.20;99.90;;;;;;5094455;28;20179;-66
2022/02/22 08:27:05;;;;;;;4.03;2.03;;;8.40;99.90;;;;;;5095026;28;20159;-67
2022/02/22 08:29:32;;;;;;;0.93;0.93;;;8.70;99.90;;;;;;5094688;28;20565;-66
2022/02/22 08:31:58;;;;;;;1.73;0.98;;;9.00;99.90;;;;;;5094550;28;20301;-66
2022/02/22 08:34:24;;;;;;;2.60;1.55;;;9.50;99.90;;;;;;5094410;28;20180;-65
2022/02/22 08:36:50;;;;;;;3.20;1.30;;;10.00;99.90;;;;;;5079724;28;20181;-66
2022/02/22 08:39:16;;;;;;;9.70;2.43;;;10.10;99.90;;;;;;5074072;28;20435;-66
2022/02/22 08:41:42;;;;;;;1.90;1.03;;;10.40;99.90;;;;;;5074270;28;20375;-66
2022/02/22 08:44:10;;;;;;;1.93;1.83;;;10.60;99.90;;;;;;5073853;28;20432;-66
2022/02/22 08:46:36;;;;;;;1.43;1.27;;;10.70;99.70;;;;;;5074176;28;20413;-66
2022/02/22 08:49:02;;;;;;;3.17;1.60;;;10.70;99.80;;;;;;5073841;28;20928;-65
2022/02/22 08:51:27;;;;;;;1.40;1.30;;;10.90;99.70;;;;;;5074045;28;20409;-67
2022/02/22 08:53:54;;;;;;;2.70;1.97;;;11.00;99.20;;;;;;5072170;28;20460;-66
2022/02/22 08:56:20;;;;;;;4.00;1.00;;;11.00;98.80;;;;;;5072609;28;20672;-66
2022/02/22 08:58:46;;;;;;;3.30;1.37;;;10.90;99.00;;;;;;5073808;28;20453;-65
2022/02/22 09:01:12;;;;;;;1.17;1.17;;;10.80;98.90;;;;;;5081080;28;20868;-67
2022/02/22 09:03:38;;;;;;;4.67;1.13;;;10.70;99.50;;;;;;5081358;28;20658;-70
2022/02/22 09:06:03;;;;;;;5.30;1.97;;;10.70;99.50;;;;;;5072388;28;20662;-67
2022/02/22 09:08:29;;;;;;;1.20;1.10;;;10.50;99.60;;;;;;5092497;28;20630;-68
2022/02/22 09:10:55;;;;;;;1.87;1.73;;;10.40;99.90;;;;;;5093819;28;20264;-67
2022/02/22 09:13:21;;;;;;;2.43;1.30;;;10.20;99.90;;;;;;5093025;28;20283;-66
2022/02/22 09:15:49;;;;;;;1.60;1.20;;;10.10;99.90;;;;;;5096370;28;20683;-67
2022/02/22 09:18:15;;;;;;;4.88;1.27;;;10.00;99.90;;;;;;5096572;28;20529;-65
2022/02/22 09:20:41;;;;;;;2.23;1.57;;;9.90;99.90;;;;;;5098614;28;20591;-65
2022/02/22 09:23:07;;;;;;;1.70;1.40;;;9.60;99.90;;;;;;5098548;28;20447;-68
2022/02/22 09:25:33;;;;;;;1.63;1.52;;;9.50;99.90;;;;;;5096588;28;20192;-65
2022/02/22 09:28:09;;;;;;;2.28;1.30;;;9.40;99.90;;;;;;5096985;28;20645;-70
2022/02/22 09:30:36;;;;;;;2.15;0.90;;;9.40;99.90;;;;;;5096440;28;20181;-63
2022/02/22 09:33:03;;;;;;;4.57;1.90;;;9.40;99.90;;;;;;5095137;28;20198;-66
2022/02/22 09:35:29;;;;;;;2.80;1.10;;;9.50;99.90;;;;;;5093588;28;20200;-67
2022/02/22 09:37:56;;;;;;;4.25;1.63;;;9.40;99.90;;;;;;5094414;28;20707;-65
2022/02/22 09:40:23;;;;;;;1.63;1.20;;;9.30;99.90;;;;;;5094461;28;20215;-69
2022/02/22 09:42:48;;;;;;;1.92;1.20;;;9.20;99.90;;;;;;5091923;28;20638;-64
2022/02/22 09:45:16;;;;;;;1.93;1.10;;;9.20;99.90;;;;;;5093428;28;20241;-65
2022/02/22 09:47:43;;;;;;;5.55;1.50;;;9.20;99.90;;;;;;5093569;28;20807;-63
2022/02/22 09:50:09;;;;;;;5.95;1.33;;;9.10;99.90;;;;;;5094458;28;20244;-65
2022/02/22 09:52:35;;;;;;;1.60;1.50;;;9.10;99.90;;;;;;5094547;28;20239;-63
2022/02/22 09:55:02;;;;;;;2.97;1.30;;;9.00;99.90;;;;;;5093511;28;20184;-66
2022/02/22 09:57:28;;;;;;;1.77;1.25;;;9.00;99.90;;;;;;5093469;28;20402;-63
2022/02/22 09:59:54;;;;;;;0.97;0.97;;;8.90;99.90;;;;;;5093549;28;20175;-66
2022/02/22 10:02:19;;;;;;;2.40;1.00;;;8.90;99.90;;;;;;5093554;28;20179;-64
2022/02/22 10:04:47;;;;;;;1.67;0.77;;;9.00;99.90;;;;;;5093257;28;20204;-67
2022/02/22 10:07:13;;;;;;;5.45;1.35;;;9.10;99.90;;;;;;5092548;28;20176;-65
2022/02/22 10:10:00;;;;;;;1.80;1.20;;;9.20;99.90;;;;;;5093517;28;20183;-65
2022/02/22 10:12:34;;;;;;;2.45;1.38;;;9.40;99.90;;;;;;5093409;28;20271;-64
2022/02/22 10:15:02;;;;;;;1.48;1.33;;;9.40;99.90;;;;;;5072784;28;20273;-65
2022/02/22 10:17:35;;;;;;;2.50;1.08;;;9.40;99.90;;;;;;5090257;28;20179;-66
2022/02/22 10:20:02;;;;;;;1.27;0.98;;;9.40;99.90;;;;;;5092838;28;20289;-64
2022/02/22 10:22:32;;;;;;;2.35;1.10;;;9.50;99.90;;;;;;5092146;28;20598;-66
2022/02/22 10:25:10;;;;;;;2.15;1.52;;;9.60;99.90;;;;;;5091799;28;20196;-64
2022/02/22 10:27:48;;;;;;;1.13;1.00;;;9.80;99.90;;;;;;5092705;28;20195;-64
2022/02/22 10:30:27;;;;;;;1.67;1.05;;;10.00;99.90;;;;;;5092898;28;20204;-64
2022/02/22 10:32:54;;;;;;;5.00;1.55;;;10.20;99.90;;;;;;5081748;28;20189;-67
2022/02/22 10:35:31;;;;;;;1.43;1.33;;;10.40;99.90;;;;;;5095444;28;20196;-65
2022/02/22 10:37:57;;;;;;;0.90;0.90;;;10.50;99.90;;;;;;5096876;28;20781;-66
2022/02/22 10:40:30;;;;;;;1.13;0.87;;;10.50;99.80;;;;;;5096817;28;20177;-68
2022/02/22 10:42:57;;;;;;;5.83;1.53;;;10.40;99.80;;;;;;5096727;28;20175;-65
2022/02/22 10:45:24;;;;;;;2.25;1.35;;;10.30;99.90;;;;;;5097054;28;20426;-64
2022/02/22 10:47:51;;;;;;;1.10;1.10;;;10.30;99.90;;;;;;5096852;28;20182;-68
2022/02/22 10:50:25;;;;;;;0.80;0.80;;;10.30;99.90;;;;;;5096476;28;20231;-66
2022/02/22 10:52:52;;;;;;;1.33;1.17;;;10.40;99.90;;;;;;5095783;28;20234;-67
2022/02/22 10:55:18;;;;;;;0.80;0.80;;;10.50;99.90;;;;;;5095937;28;20215;-65
2022/02/22 10:57:45;;;;;;;1.20;1.03;;;10.60;99.70;;;;;;5096472;28;20504;-67
2022/02/22 11:00:12;;;;;;;2.37;1.40;;;10.60;99.40;;;;;;5096093;28;20709;-66
2022/02/22 11:02:38;;;;;;;2.40;1.93;;;10.70;99.60;;;;;;5096626;28;20403;-68
2022/02/22 11:05:05;;;;;;;1.70;1.07;;;10.70;99.60;;;;;;5095563;28;20509;-65
2022/02/22 11:07:31;;;;;;;0.80;0.80;;;10.80;99.70;;;;;;5096369;28;20566;-68
2022/02/22 11:09:58;;;;;;;2.30;1.17;;;10.90;99.30;;;;;;5096180;28;20421;-64
2022/02/22 11:12:30;;;;;;;1.23;1.13;;;11.10;99.10;;;;;;5096009;28;20486;-65
2022/02/22 11:15:10;;;;;;;1.60;1.50;;;11.10;98.70;;;;;;5094838;28;20500;-64
2022/02/22 11:17:50;;;;;;;8.87;1.97;;;10.90;99.30;;;;;;5092840;28;20984;-65
2022/02/22 11:20:45;;;;;;;5.10;1.65;;;10.70;99.20;;;;;;5092554;28;20419;-66
2022/02/22 11:23:15;;;;;;;3.92;1.70;;;10.50;99.60;;;;;;5094539;28;20208;-65
2022/02/22 11:25:42;;;;;;;3.28;0.90;;;10.40;99.90;;;;;;5095068;28;20571;-67
2022/02/22 11:28:11;;;;;;;2.15;1.55;;;10.30;99.90;;;;;;5095266;28;20172;-64
2022/02/22 11:30:38;;;;;;;3.83;1.83;;;10.20;99.90;;;;;;5095226;28;20539;-68
2022/02/22 11:33:11;;;;;;;3.22;0.90;;;10.20;99.90;;;;;;5094401;28;20251;-64
2022/02/22 11:35:51;;;;;;;2.53;1.45;;;10.20;99.90;;;;;;5094749;28;20778;-64
2022/02/22 11:38:17;;;;;;;3.58;1.67;;;10.20;99.90;;;;;;5092762;28;20176;-66
2022/02/22 11:40:43;;;;;;;1.30;1.20;;;10.30;99.90;;;;;;5094917;28;20233;-65
2022/02/22 11:43:16;;;;;;;4.80;1.63;;;10.50;99.90;;;;;;5089991;28;20414;-62
2022/02/22 11:45:47;;;;;;;1.57;1.20;;;10.60;99.90;;;;;;5089879;28;20189;-66
2022/02/22 11:48:26;;;;;;;1.67;1.57;;;10.70;99.90;;;;;;5093503;28;20491;-66
2022/02/22 11:50:56;;;;;;;1.97;1.80;;;10.90;99.70;;;;;;5094806;28;20419;-65
2022/02/22 11:53:26;;;;;;;1.00;1.00;;;11.00;99.70;;;;;;5094495;28;20455;-64
2022/02/22 11:55:53;;;;;;;10.70;1.70;;;11.10;99.60;;;;;;5095055;28;20424;-65
2022/02/22 11:58:24;;;;;;;2.20;1.20;;;11.20;98.80;;;;;;5094240;28;20424;-64
2022/02/22 12:01:04;;;;;;;2.97;1.53;;;11.30;99.20;;;;;;5093917;28;20446;-67
2022/02/22 12:03:50;;;;;;;1.53;1.17;;;11.40;99.40;;;;;;5094402;28;20435;-65
2022/02/22 12:06:19;;;;;;;3.17;1.60;;;11.50;98.50;;;;;;5095154;28;20449;-66
2022/02/22 12:08:51;;;;;;;0.90;0.90;;;11.40;98.60;;;;;;5094262;28;20399;-68
2022/02/22 12:11:21;;;;;;;2.63;1.43;;;11.40;98.80;;;;;;5090578;28;21013;-69
2022/02/22 12:13:55;;;;;;;5.53;1.50;;;11.40;98.50;;;;;;5088539;28;20459;-67
2022/02/22 12:16:25;;;;;;;2.10;1.37;;;11.50;98.50;;;;;;5089355;28;20423;-64
2022/02/22 12:18:53;;;;;;;4.33;1.73;;;11.50;98.90;;;;;;5090033;28;20411;-69
2022/02/22 12:21:20;;;;;;;1.83;1.00;;;11.60;99.00;;;;;;5089353;28;20520;-69
2022/02/22 12:23:46;;;;;;;1.23;1.13;;;11.70;99.10;;;;;;5088235;28;20412;-67
2022/02/22 12:26:14;;;;;;;6.37;2.43;;;11.80;99.00;;;;;;5088798;28;20417;-65
2022/02/22 12:28:51;;;;;;;1.83;1.40;;;12.00;98.30;;;;;;5092825;28;20458;-67
2022/02/22 12:31:28;;;;;;;1.40;0.90;;;12.20;98.30;;;;;;5093934;28;20507;-68
2022/02/22 12:34:01;;;;;;;1.00;1.00;;;12.30;98.20;;;;;;5093575;28;20453;-68
2022/02/22 12:36:27;;;;;;;1.93;1.37;;;12.40;97.70;;;;;;5094100;28;20455;-66
2022/02/22 12:38:58;;;;;;;1.63;1.00;;;12.40;97.20;;;;;;5093729;28;20504;-68
2022/02/22 12:41:26;;;;;;;2.00;1.43;;;12.40;97.30;;;;;;5094150;28;20802;-63
2022/02/22 12:43:53;;;;;;;3.70;1.33;;;12.40;96.60;;;;;;5093496;28;20417;-66
2022/02/22 12:46:21;;;;;;;2.87;1.07;;;12.30;96.20;;;;;;5093870;28;20995;-66
2022/02/22 12:48:47;;;;;;;1.00;0.70;;;12.10;96.50;;;;;;5092539;28;21349;-66
2022/02/22 12:51:18;;;;;;;2.27;2.00;;;12.00;97.10;;;;;;5093363;28;20474;-66
2022/02/22 12:54:14;;;;;;;3.03;1.00;;;11.80;97.10;;;;;;5092616;28;20949;-68